Time;durP1;ratioP1;P1;durP2;ratioP2;P2;SDS_P1;SDS_P2;PMS_P1;PMS_P2;Temp;Humidity;BMP_temperature;BMP_pressure;BME280_temperature;BME280_humidity;BME280_pressure;Samples;Min_cycle;Max_cycle;Signal;HPM_P1;HPM_P2
2020/12/16 00:01:36;;;;;;;53.85;23.65;;;;;;;6.40;100.00;101669.22;4994598;28;20037;-74
2020/12/16 00:04:01;;;;;;;55.42;25.23;;;;;;;6.45;99.81;101674.13;4955121;28;20038;-77
2020/12/16 00:06:27;;;;;;;47.15;21.85;;;;;;;6.45;100.00;101681.13;4974401;28;20049;-80
2020/12/16 00:08:52;;;;;;;37.63;22.02;;;;;;;6.46;99.72;101685.38;4997809;28;20037;-76
2020/12/16 00:11:18;;;;;;;32.40;19.13;;;;;;;6.45;99.61;101676.72;4980446;28;20403;-78
2020/12/16 00:13:43;;;;;;;28.63;15.65;;;;;;;6.45;99.52;101681.13;4976331;28;20109;-79
2020/12/16 00:16:09;;;;;;;33.03;17.77;;;;;;;6.47;99.66;101681.84;4963551;28;20083;-76
2020/12/16 00:18:34;;;;;;;37.67;20.38;;;;;;;6.46;99.45;101674.94;4963082;28;20049;-79
2020/12/16 00:21:00;;;;;;;54.17;24.08;;;;;;;6.42;99.67;101676.91;4961161;28;20408;-77
2020/12/16 00:23:25;;;;;;;43.63;23.80;;;;;;;6.47;99.74;101690.50;4966306;28;20030;-78
2020/12/16 00:25:51;;;;;;;42.38;22.02;;;;;;;6.47;99.44;101702.69;4964930;28;20600;-78
2020/12/16 00:28:16;;;;;;;55.88;23.88;;;;;;;6.47;99.47;101700.09;4965160;28;20178;-79
2020/12/16 00:30:47;;;;;;;51.72;23.25;;;;;;;6.41;99.51;101696.94;4970665;28;20137;-78
2020/12/16 00:33:19;;;;;;;39.17;20.27;;;;;;;6.41;99.36;101699.53;4983281;28;20034;-76
2020/12/16 00:35:45;;;;;;;35.35;18.40;;;;;;;6.35;99.25;101688.69;5002401;28;20038;-78
2020/12/16 00:38:12;;;;;;;42.58;20.48;;;;;;;6.43;99.75;101707.25;4990950;28;20045;-78
2020/12/16 00:40:38;;;;;;;35.35;18.30;;;;;;;6.40;99.59;101704.84;5006727;28;20042;-78
2020/12/16 00:43:04;;;;;;;34.80;18.92;;;;;;;6.42;100.00;101714.25;4990360;28;20030;-78
2020/12/16 00:45:30;;;;;;;45.00;23.40;;;;;;;6.40;99.83;101710.91;4995906;28;20035;-78
2020/12/16 00:47:56;;;;;;;50.58;23.90;;;;;;;6.43;99.48;101717.69;4998410;28;20038;-77
2020/12/16 00:50:23;;;;;;;35.83;18.55;;;;;;;6.41;99.79;101709.97;4983423;28;20394;-79
2020/12/16 00:52:51;;;;;;;38.47;20.17;;;;;;;6.43;99.55;101715.09;5018291;28;20109;-78
2020/12/16 00:55:17;;;;;;;42.05;21.73;;;;;;;6.45;99.46;101712.38;5008788;28;20089;-77
2020/12/16 00:57:44;;;;;;;37.17;19.70;;;;;;;6.42;99.72;101711.66;4979884;28;20046;-77
2020/12/16 01:00:11;;;;;;;40.83;22.40;;;;;;;6.56;99.35;101720.38;4991122;28;20496;-78
2020/12/16 01:02:47;;;;;;;49.38;25.08;;;;;;;6.57;99.45;101719.41;4976713;28;20088;-77
2020/12/16 01:05:19;;;;;;;48.10;24.00;;;;;;;6.57;99.04;101724.63;4997515;28;20045;-78
2020/12/16 01:07:47;;;;;;;41.20;22.83;;;;;;;6.56;99.04;101729.03;4970581;28;20073;-76
2020/12/16 01:10:16;;;;;;;39.58;21.63;;;;;;;6.52;99.26;101727.53;4981234;28;20038;-78
2020/12/16 01:12:46;;;;;;;39.05;22.80;;;;;;;6.47;98.71;101736.59;4996227;28;20030;-78
2020/12/16 01:15:19;;;;;;;70.00;25.88;;;;;;;6.40;98.59;101729.16;4971719;28;20195;-77
2020/12/16 01:17:50;;;;;;;37.50;19.52;;;;;;;6.37;99.13;101731.13;4965020;28;20065;-77
2020/12/16 01:20:21;;;;;;;40.83;21.07;;;;;;;6.36;99.28;101732.84;4964220;28;20504;-79
2020/12/16 01:22:48;;;;;;;39.30;21.42;;;;;;;6.37;98.85;101731.13;4992343;28;20077;-76
2020/12/16 01:25:19;;;;;;;41.78;21.83;;;;;;;6.36;98.96;101740.69;4995998;28;20041;-77
2020/12/16 01:27:44;;;;;;;45.22;22.63;;;;;;;6.34;99.04;101734.72;4963662;28;20063;-77
2020/12/16 01:30:10;;;;;;;30.17;17.33;;;;;;;6.33;99.17;101737.41;5009054;28;20117;-77
2020/12/16 01:32:37;;;;;;;39.95;20.65;;;;;;;6.32;99.18;101740.97;4984309;28;20556;-78
2020/12/16 01:35:05;;;;;;;49.10;23.55;;;;;;;6.32;99.25;101740.97;4973611;28;20042;-79
2020/12/16 01:37:31;;;;;;;49.45;23.90;;;;;;;6.29;99.02;101742.00;4976546;28;20065;-78
2020/12/16 01:39:56;;;;;;;48.25;23.80;;;;;;;6.27;99.52;101741.22;5006824;28;20598;-78
2020/12/16 01:42:30;;;;;;;30.55;17.65;;;;;;;6.30;99.12;101735.03;4989707;28;20030;-78
2020/12/16 01:44:55;;;;;;;44.88;21.73;;;;;;;6.28;99.28;101737.72;4981344;28;20038;-77
2020/12/16 01:47:21;;;;;;;46.13;24.40;;;;;;;6.30;99.45;101742.84;4995306;28;20052;-78
2020/12/16 01:49:55;;;;;;;41.50;20.00;;;;;;;6.29;99.21;101741.16;4976576;28;20097;-76
2020/12/16 01:52:23;;;;;;;44.90;22.58;;;;;;;6.27;99.31;101743.00;4997066;28;20120;-78
2020/12/16 01:54:57;;;;;;;35.80;18.83;;;;;;;6.24;99.55;101744.06;4983295;28;20082;-78
2020/12/16 01:57:26;;;;;;;43.30;21.25;;;;;;;6.30;99.08;101758.47;4976982;28;20129;-76
2020/12/16 02:00:02;;;;;;;45.13;23.40;;;;;;;6.26;99.33;101757.00;4993158;28;20045;-80
2020/12/16 02:02:46;;;;;;;36.70;19.20;;;;;;;6.24;98.79;101757.91;4976908;28;20038;-78
2020/12/16 02:05:18;;;;;;;49.60;23.00;;;;;;;6.29;99.49;101756.78;4988249;28;20033;-77
2020/12/16 02:07:45;;;;;;;41.97;22.08;;;;;;;6.27;98.90;101756.03;4984448;28;20499;-78
2020/12/16 02:10:15;;;;;;;47.17;23.88;;;;;;;6.24;99.30;101755.31;4998939;28;20072;-78
2020/12/16 02:12:41;;;;;;;50.28;22.65;;;;;;;6.22;99.35;101754.56;4961228;28;20073;-77
2020/12/16 02:15:08;;;;;;;69.55;29.55;;;;;;;6.22;99.51;101758.94;4987807;28;20034;-76
2020/12/16 02:17:36;;;;;;;63.38;28.33;;;;;;;6.20;99.40;101753.81;4980198;28;20065;-77
2020/12/16 02:20:06;;;;;;;65.10;26.35;;;;;;;6.20;99.43;101755.59;4995055;28;20042;-78
2020/12/16 02:22:37;;;;;;;73.38;27.92;;;;;;;6.21;99.59;101763.28;4966804;28;20042;-77
2020/12/16 02:25:06;;;;;;;52.05;23.45;;;;;;;6.23;99.18;101774.50;4985996;28;20040;-77
2020/12/16 02:27:37;;;;;;;49.35;24.05;;;;;;;6.26;99.77;101776.06;4991969;28;20038;-80
2020/12/16 02:30:12;;;;;;;70.85;28.75;;;;;;;6.29;99.60;101780.22;4978491;28;20057;-79
2020/12/16 02:32:56;;;;;;;54.58;24.98;;;;;;;6.23;99.45;101779.69;4991816;28;20492;-77
2020/12/16 02:35:23;;;;;;;51.67;25.08;;;;;;;6.23;99.48;101778.84;4975600;28;20027;-78
2020/12/16 02:38:00;;;;;;;65.15;27.42;;;;;;;6.21;99.15;101789.34;4969582;28;20515;-77
2020/12/16 02:40:27;;;;;;;59.90;26.13;;;;;;;6.21;99.33;101791.13;4989114;28;20038;-78
2020/12/16 02:42:53;;;;;;;47.92;23.15;;;;;;;6.20;99.29;101782.47;4989765;28;20033;-78
2020/12/16 02:45:19;;;;;;;47.50;22.33;;;;;;;6.24;99.30;101789.16;4981696;28;20133;-78
2020/12/16 02:47:58;;;;;;;52.75;24.27;;;;;;;6.27;99.46;101790.75;4973195;28;20034;-78
2020/12/16 02:50:23;;;;;;;53.92;26.88;;;;;;;6.48;98.76;101796.44;4955865;28;20606;-77
2020/12/16 02:52:49;;;;;;;48.03;26.05;;;;;;;6.62;98.31;101803.41;4990467;28;20088;-77
2020/12/16 02:55:18;;;;;;;46.80;23.98;;;;;;;6.51;98.36;101808.44;4977941;28;20038;-76
2020/12/16 02:58:09;;;;;;;54.47;25.50;;;;;;;6.47;98.64;101799.13;4976193;28;20042;-76
2020/12/16 03:00:35;;;;;;;51.08;24.52;;;;;;;6.40;98.51;101806.47;4973911;28;20116;-77
2020/12/16 03:03:28;;;;;;;51.80;24.92;;;;;;;6.35;99.05;101811.16;4992697;28;20097;-77
2020/12/16 03:06:15;;;;;;;47.85;23.75;;;;;;;6.30;98.94;101816.63;4972964;28;20027;-77
2020/12/16 03:08:49;;;;;;;58.15;26.52;;;;;;;6.28;98.83;101809.84;4973164;28;20035;-76
2020/12/16 03:11:16;;;;;;;52.90;24.45;;;;;;;6.21;98.75;101804.97;4958509;28;20598;-77
2020/12/16 03:13:42;;;;;;;56.17;27.27;;;;;;;6.33;98.86;101813.84;4991589;28;20041;-77
2020/12/16 03:16:08;;;;;;;56.40;23.90;;;;;;;6.28;98.91;101822.88;4942003;28;20138;-78
2020/12/16 03:18:35;;;;;;;57.13;26.10;;;;;;;6.29;99.30;101825.38;4959805;28;20526;-76
2020/12/16 03:21:04;;;;;;;65.93;31.30;;;;;;;6.24;99.34;101817.00;5007677;28;20030;-77
2020/12/16 03:23:30;;;;;;;66.47;27.70;;;;;;;6.22;99.54;101831.88;4959750;28;20030;-76
2020/12/16 03:26:14;;;;;;;58.28;26.38;;;;;;;6.29;99.49;101827.13;4975161;28;20125;-76
2020/12/16 03:28:53;;;;;;;60.72;25.90;;;;;;;6.29;99.15;101840.16;4973761;28;20057;-77
2020/12/16 03:31:37;;;;;;;61.65;28.05;;;;;;;6.26;99.23;101835.16;5006153;28;20035;-77
2020/12/16 03:34:13;;;;;;;52.50;24.92;;;;;;;6.24;99.10;101835.25;4959624;28;20039;-77
2020/12/16 03:36:57;;;;;;;56.80;25.42;;;;;;;6.27;99.48;101839.41;4974072;28;20456;-77
2020/12/16 03:39:22;;;;;;;82.35;30.40;;;;;;;6.23;99.07;101833.53;4972686;28;20039;-77
2020/12/16 03:41:50;;;;;;;61.88;27.75;;;;;;;6.24;99.00;101833.47;4990213;28;20050;-76
2020/12/16 03:44:17;;;;;;;60.47;26.27;;;;;;;6.19;99.65;101830.28;4974983;28;20030;-79
2020/12/16 03:46:52;;;;;;;73.33;28.33;;;;;;;6.19;99.17;101830.28;4977928;28;20031;-80
2020/12/16 03:49:19;;;;;;;52.83;24.38;;;;;;;6.17;99.21;101824.34;4967121;28;20031;-77
2020/12/16 03:51:50;;;;;;;61.97;27.83;;;;;;;6.22;99.26;101821.47;4955651;28;20125;-76
2020/12/16 03:54:16;;;;;;;55.17;25.27;;;;;;;6.21;99.70;101833.63;4962020;28;20026;-77
2020/12/16 03:56:51;;;;;;;45.53;21.10;;;;;;;6.16;99.23;101822.66;4988329;28;20042;-76
2020/12/16 03:59:42;;;;;;;57.10;26.10;;;;;;;6.14;99.31;101828.88;4981823;28;20034;-76
2020/12/16 04:02:20;;;;;;;60.63;26.30;;;;;;;6.18;99.32;101830.41;4962014;28;20140;-78
2020/12/16 04:05:01;;;;;;;53.13;25.15;;;;;;;6.18;99.54;101833.00;4962821;28;20030;-78
2020/12/16 04:07:28;;;;;;;53.38;25.17;;;;;;;6.24;99.19;101837.84;4961146;28;20039;-78
2020/12/16 04:10:04;;;;;;;82.65;31.55;;;;;;;6.22;99.78;101843.16;4973809;28;20037;-78
2020/12/16 04:12:29;;;;;;;58.97;25.13;;;;;;;6.20;99.45;101844.19;4980484;28;20479;-77
2020/12/16 04:14:55;;;;;;;61.95;26.63;;;;;;;6.20;99.39;101852.81;4973857;28;20038;-76
2020/12/16 04:17:20;;;;;;;58.67;24.15;;;;;;;6.19;99.51;101861.56;4985175;28;20488;-78
2020/12/16 04:20:06;;;;;;;75.72;30.08;;;;;;;6.17;99.67;101865.19;4979445;28;20031;-77
2020/12/16 04:22:34;;;;;;;59.05;25.42;;;;;;;6.18;99.69;101865.09;4976584;28;20099;-80
2020/12/16 04:25:03;;;;;;;71.55;28.95;;;;;;;6.19;99.89;101869.38;4976874;28;20046;-77
2020/12/16 04:27:31;;;;;;;57.25;23.92;;;;;;;6.22;99.68;101869.19;4977892;28;20034;-77
2020/12/16 04:29:57;;;;;;;64.43;27.63;;;;;;;6.24;99.83;101872.53;4996156;28;20045;-77
2020/12/16 04:32:25;;;;;;;62.50;24.33;;;;;;;6.21;99.97;101866.69;4995376;28;20037;-76
2020/12/16 04:34:50;;;;;;;87.70;32.67;;;;;;;6.21;99.60;101858.84;5012445;28;20034;-77
2020/12/16 04:37:16;;;;;;;80.07;31.52;;;;;;;6.21;99.71;101858.84;4954614;28;20039;-78
2020/12/16 04:39:48;;;;;;;73.60;30.75;;;;;;;6.22;99.89;101860.56;4980964;28;20172;-78
2020/12/16 04:42:16;;;;;;;74.25;31.02;;;;;;;6.29;99.52;101858.41;4979753;28;20046;-79
2020/12/16 04:44:41;;;;;;;64.40;26.70;;;;;;;6.21;99.41;101853.66;4979777;28;20037;-78
2020/12/16 04:47:12;;;;;;;64.38;27.00;;;;;;;6.20;99.90;101852.81;4989433;28;20056;-77
2020/12/16 04:49:43;;;;;;;61.55;28.33;;;;;;;6.20;99.65;101860.63;5015225;28;20049;-77
2020/12/16 04:52:09;;;;;;;58.42;24.50;;;;;;;6.21;99.68;101866.69;4993321;28;20039;-76
2020/12/16 04:54:49;;;;;;;62.45;26.35;;;;;;;6.18;99.72;101875.53;4993683;28;20129;-77
2020/12/16 04:57:20;;;;;;;113.40;33.78;;;;;;;6.14;99.68;101874.03;4990194;28;20035;-77
2020/12/16 04:59:46;;;;;;;89.20;31.98;;;;;;;6.14;99.62;101881.84;4993894;28;20481;-78
2020/12/16 05:02:23;;;;;;;77.95;30.63;;;;;;;6.16;99.50;101887.81;4978868;28;20041;-76
2020/12/16 05:05:05;;;;;;;83.72;30.80;;;;;;;6.17;99.84;101888.63;4989805;28;20044;-78
2020/12/16 05:07:31;;;;;;;84.90;30.50;;;;;;;6.19;99.93;101902.41;4979855;28;20046;-78
2020/12/16 05:09:56;;;;;;;112.47;36.63;;;;;;;6.19;99.69;101895.41;4995109;28;20077;-78
2020/12/16 05:12:22;;;;;;;103.28;36.90;;;;;;;6.19;99.74;101903.22;4975785;28;20289;-77
2020/12/16 05:14:47;;;;;;;90.50;34.90;;;;;;;6.24;99.97;101897.78;4962305;28;20081;-78
2020/12/16 05:17:13;;;;;;;100.97;37.80;;;;;;;6.19;99.92;101894.59;4965076;28;20034;-77
2020/12/16 05:19:49;;;;;;;72.82;29.40;;;;;;;6.21;99.63;101914.41;4996493;28;20030;-78
2020/12/16 05:22:28;;;;;;;89.53;33.95;;;;;;;6.20;99.64;101904.09;4978351;28;20057;-77
2020/12/16 05:24:56;;;;;;;79.18;31.48;;;;;;;6.20;99.92;101904.09;4987067;28;20038;-77
2020/12/16 05:27:30;;;;;;;90.75;32.22;;;;;;;6.17;99.85;101906.88;4982468;28;20038;-76
2020/12/16 05:30:01;;;;;;;90.72;33.67;;;;;;;6.19;99.72;101905.84;4978136;28;20074;-78
2020/12/16 05:32:32;;;;;;;83.97;33.38;;;;;;;6.18;99.89;101903.34;4975219;28;20038;-77
2020/12/16 05:34:59;;;;;;;89.85;32.22;;;;;;;6.16;100.00;101897.38;4958436;28;20078;-76
2020/12/16 05:37:27;;;;;;;80.78;33.53;;;;;;;6.19;99.74;101900.63;4972982;28;20062;-78
2020/12/16 05:39:57;;;;;;;74.53;30.25;;;;;;;6.18;99.52;101898.97;4978703;28;20420;-76
2020/12/16 05:42:24;;;;;;;61.70;25.48;;;;;;;6.17;99.91;101909.47;4972513;28;20033;-78
2020/12/16 05:44:51;;;;;;;77.22;29.25;;;;;;;6.13;99.64;101903.59;4979135;28;20031;-78
2020/12/16 05:47:16;;;;;;;81.95;30.02;;;;;;;6.11;99.93;101909.84;5009006;28;20065;-78
2020/12/16 05:49:42;;;;;;;89.10;34.78;;;;;;;6.11;99.69;101907.22;5002718;28;20041;-77
2020/12/16 05:52:07;;;;;;;78.05;29.50;;;;;;;6.11;99.92;101915.88;4984774;28;20042;-78
2020/12/16 05:54:37;;;;;;;118.80;37.58;;;;;;;6.07;100.00;101908.34;4984815;28;20519;-78
2020/12/16 05:57:20;;;;;;;87.85;33.28;;;;;;;6.11;100.00;101910.66;4993880;28;20055;-77
2020/12/16 06:00:20;;;;;;;73.13;26.38;;;;;;;6.04;100.00;101911.94;4984732;28;20041;-78
2020/12/16 06:02:46;;;;;;;98.35;30.60;;;;;;;6.04;100.00;101915.38;4955655;28;20417;-78
2020/12/16 06:05:13;;;;;;;70.18;27.70;;;;;;;6.08;100.00;101917.81;4997027;28;20034;-77
2020/12/16 06:07:43;;;;;;;85.68;30.25;;;;;;;6.08;99.69;101926.47;5013257;28;20053;-77
2020/12/16 06:10:09;;;;;;;87.00;30.20;;;;;;;6.08;99.78;101921.25;4976899;28;20034;-79
2020/12/16 06:12:40;;;;;;;86.32;28.98;;;;;;;6.08;100.00;101929.06;4961355;28;20050;-78
2020/12/16 06:15:16;;;;;;;70.30;27.10;;;;;;;6.08;99.88;101933.44;4992377;28;20035;-79
2020/12/16 06:17:46;;;;;;;87.85;31.40;;;;;;;6.07;99.67;101930.00;4976297;28;20643;-78
2020/12/16 06:20:14;;;;;;;78.28;28.23;;;;;;;6.06;100.00;101937.91;4976086;28;20026;-78
2020/12/16 06:22:44;;;;;;;72.70;28.75;;;;;;;6.09;100.00;101943.78;4969124;28;20074;-78
2020/12/16 06:25:15;;;;;;;65.22;27.10;;;;;;;6.07;100.00;101942.22;4995022;28;20404;-79
2020/12/16 06:27:48;;;;;;;78.57;30.15;;;;;;;6.05;100.00;101947.50;5004967;28;20077;-77
2020/12/16 06:30:17;;;;;;;76.22;28.77;;;;;;;6.04;99.96;101949.25;4991178;28;20408;-78
2020/12/16 06:32:47;;;;;;;66.13;25.73;;;;;;;6.01;99.97;101952.03;4975030;28;20038;-76
2020/12/16 06:35:17;;;;;;;87.38;30.80;;;;;;;5.99;99.91;101953.91;5006517;28;20048;-78
2020/12/16 06:37:44;;;;;;;98.70;34.97;;;;;;;6.01;99.62;101948.59;5014438;28;20049;-78
2020/12/16 06:40:10;;;;;;;77.57;29.13;;;;;;;6.01;99.69;101948.59;4996790;28;20096;-77
2020/12/16 06:42:36;;;;;;;87.55;31.92;;;;;;;6.04;99.95;101940.59;5013013;28;20049;-76
2020/12/16 06:45:09;;;;;;;83.30;30.90;;;;;;;6.08;99.91;101951.69;5013437;28;20079;-77
2020/12/16 06:47:35;;;;;;;95.80;32.92;;;;;;;6.04;99.84;101957.06;4997238;28;20084;-76
2020/12/16 06:50:18;;;;;;;84.53;29.23;;;;;;;6.02;100.00;101950.25;4981000;28;20041;-77
2020/12/16 06:52:44;;;;;;;85.00;29.58;;;;;;;5.93;99.55;101937.72;5009643;28;20046;-77
2020/12/16 06:55:09;;;;;;;76.65;26.23;;;;;;;5.97;100.00;101950.53;5013476;28;20040;-77
2020/12/16 06:57:49;;;;;;;71.75;27.13;;;;;;;6.01;100.00;101956.41;4993327;28;20030;-77
2020/12/16 07:00:22;;;;;;;75.78;28.15;;;;;;;5.99;99.72;101958.25;4987450;28;20113;-78
2020/12/16 07:02:50;;;;;;;78.47;27.75;;;;;;;6.00;100.00;101965.16;4977275;28;20034;-77
2020/12/16 07:05:40;;;;;;;90.25;31.08;;;;;;;6.00;100.00;101963.38;5010680;28;20433;-76
2020/12/16 07:08:07;;;;;;;73.38;27.98;;;;;;;5.99;99.81;101966.06;4977920;28;20044;-77
2020/12/16 07:10:36;;;;;;;91.80;33.92;;;;;;;6.01;99.50;101966.84;4967710;28;20108;-75
2020/12/16 07:13:26;;;;;;;88.32;31.48;;;;;;;5.99;99.63;101959.09;5014655;28;20041;-77
2020/12/16 07:16:01;;;;;;;113.15;35.97;;;;;;;6.01;100.00;101959.84;5012979;28;20041;-77
2020/12/16 07:18:39;;;;;;;95.38;32.97;;;;;;;6.07;99.77;101974.28;4997383;28;20038;-78
2020/12/16 07:21:07;;;;;;;93.88;32.85;;;;;;;6.04;99.69;101975.28;5014389;28;20041;-76
2020/12/16 07:23:42;;;;;;;100.75;35.25;;;;;;;6.03;99.24;101976.22;5013731;28;20041;-77
2020/12/16 07:26:07;;;;;;;97.53;33.15;;;;;;;6.06;99.47;101982.19;5007967;28;20051;-78
2020/12/16 07:28:37;;;;;;;106.70;36.05;;;;;;;6.00;99.28;101981.59;5008986;28;20042;-77
2020/12/16 07:31:06;;;;;;;103.15;33.92;;;;;;;6.00;99.52;101983.38;4993759;28;20074;-77
2020/12/16 07:33:33;;;;;;;100.28;34.03;;;;;;;6.02;99.30;101981.53;4993346;28;20037;-77
2020/12/16 07:36:00;;;;;;;111.60;36.28;;;;;;;5.96;99.26;101967.06;5010230;28;20038;-77
2020/12/16 07:38:26;;;;;;;98.80;36.72;;;;;;;6.01;98.91;101969.44;4978206;28;20046;-77
2020/12/16 07:40:54;;;;;;;91.35;33.40;;;;;;;6.06;98.77;101990.84;4993027;28;20038;-78
2020/12/16 07:43:20;;;;;;;95.82;33.35;;;;;;;6.01;98.82;101983.28;4993287;28;20036;-77
2020/12/16 07:45:59;;;;;;;92.22;34.33;;;;;;;6.02;98.80;101981.53;5009289;28;20412;-78
2020/12/16 07:48:25;;;;;;;100.50;35.63;;;;;;;6.06;98.72;101983.03;4969640;28;20030;-77
2020/12/16 07:50:58;;;;;;;97.90;35.25;;;;;;;6.04;98.71;101982.28;5012747;28;20549;-76
2020/12/16 07:53:23;;;;;;;103.32;35.33;;;;;;;6.07;98.65;101994.31;4981690;28;20053;-76
2020/12/16 07:55:56;;;;;;;99.28;33.47;;;;;;;5.98;99.13;101991.28;4986102;28;20593;-78
2020/12/16 07:58:21;;;;;;;101.18;34.83;;;;;;;6.01;98.59;102000.69;4974559;28;20041;-77
2020/12/16 08:00:47;;;;;;;125.20;36.08;;;;;;;5.98;99.00;101995.66;4995029;28;20101;-77
2020/12/16 08:03:16;;;;;;;93.10;30.10;;;;;;;5.99;99.02;101995.56;5004821;28;20031;-77
2020/12/16 08:05:41;;;;;;;96.15;32.17;;;;;;;6.01;98.85;101998.09;4996208;28;20033;-78
2020/12/16 08:08:08;;;;;;;112.72;35.42;;;;;;;6.02;98.95;101991.94;4981958;28;20038;-80
2020/12/16 08:10:34;;;;;;;118.28;36.88;;;;;;;5.96;99.11;101995.72;4981781;28;20125;-76
2020/12/16 08:12:59;;;;;;;120.20;36.40;;;;;;;5.94;99.05;102001.94;4997191;28;20435;-78
2020/12/16 08:15:27;;;;;;;111.93;34.40;;;;;;;5.93;98.89;102000.22;4997346;28;20881;-77
2020/12/16 08:17:52;;;;;;;117.43;32.75;;;;;;;5.90;99.22;102003.84;4998719;28;20034;-79
2020/12/16 08:20:23;;;;;;;122.85;32.50;;;;;;;5.87;98.88;102005.78;4981594;28;20040;-77
2020/12/16 08:22:55;;;;;;;108.35;32.75;;;;;;;5.86;98.74;102007.56;4980345;28;20042;-77
2020/12/16 08:25:21;;;;;;;157.70;34.72;;;;;;;5.85;99.12;102017.13;4977955;28;20038;-77
2020/12/16 08:27:52;;;;;;;120.88;31.92;;;;;;;5.87;99.26;102021.41;5012955;28;20411;-78
2020/12/16 08:30:23;;;;;;;117.05;34.22;;;;;;;5.87;99.15;102021.41;4988019;28;20164;-78
2020/12/16 08:33:06;;;;;;;135.30;33.13;;;;;;;5.91;99.28;102025.53;4979923;28;20054;-77
2020/12/16 08:35:37;;;;;;;98.78;32.70;;;;;;;5.93;98.69;102021.91;5012491;28;20061;-78
2020/12/16 08:38:06;;;;;;;93.40;31.05;;;;;;;5.93;98.54;102026.28;4979601;28;20049;-77
2020/12/16 08:40:36;;;;;;;112.32;33.55;;;;;;;5.90;99.06;102018.66;5009963;28;20042;-77
2020/12/16 08:43:28;;;;;;;101.18;34.05;;;;;;;5.91;98.38;102033.34;5015264;28;20127;-77
2020/12/16 08:46:02;;;;;;;102.47;32.45;;;;;;;5.79;98.42;102027.88;5023210;28;20085;-78
2020/12/16 08:48:28;;;;;;;104.90;32.50;;;;;;;5.78;97.89;102041.84;4976160;28;20046;-77
2020/12/16 08:51:11;;;;;;;111.82;34.17;;;;;;;5.74;98.41;102037.69;4975567;28;20039;-78
2020/12/16 08:53:46;;;;;;;121.35;31.70;;;;;;;5.68;98.76;102043.25;4986268;28;20076;-77
2020/12/16 08:56:29;;;;;;;313.58;39.65;;;;;;;5.63;98.25;102048.72;4995160;28;20040;-80
2020/12/16 08:59:06;;;;;;;141.98;33.33;;;;;;;5.58;98.56;102042.06;4967518;28;20068;-78
2020/12/16 09:01:33;;;;;;;145.90;31.38;;;;;;;5.60;98.35;102043.66;5008275;28;20026;-77
2020/12/16 09:03:59;;;;;;;448.02;41.30;;;;;;;5.54;98.70;102054.41;4975589;28;20035;-77
2020/12/16 09:06:25;;;;;;;91.10;25.90;;;;;;;5.55;98.59;102048.25;4976775;28;20460;-77
2020/12/16 09:08:50;;;;;;;265.40;33.30;;;;;;;5.60;98.94;102053.25;4960039;28;20030;-77
2020/12/16 09:11:20;;;;;;;204.43;31.77;;;;;;;5.58;98.12;102060.28;4960573;28;20049;-78
2020/12/16 09:13:47;;;;;;;119.70;28.95;;;;;;;5.59;98.35;102064.56;4975525;28;20045;-77
2020/12/16 09:16:23;;;;;;;285.63;33.08;;;;;;;5.54;98.29;102058.75;4959926;28;20038;-77
2020/12/16 09:18:49;;;;;;;117.45;29.58;;;;;;;5.52;98.48;102063.19;4960959;28;20038;-79
2020/12/16 09:21:30;;;;;;;144.88;28.17;;;;;;;5.53;97.98;102070.09;4977026;28;20045;-76
2020/12/16 09:23:56;;;;;;;69.30;24.13;;;;;;;5.59;98.26;102068.00;4976168;28;20093;-77
2020/12/16 09:26:43;;;;;;;278.27;29.88;;;;;;;5.62;97.99;102067.00;4987614;28;20038;-78
2020/12/16 09:29:25;;;;;;;178.63;27.95;;;;;;;5.62;97.60;102062.63;4977852;28;20049;-77
2020/12/16 09:32:07;;;;;;;84.25;24.98;;;;;;;5.55;97.42;102066.47;5009375;28;20499;-76
2020/12/16 09:34:42;;;;;;;267.40;28.55;;;;;;;5.54;97.59;102070.03;4965623;28;20476;-77
2020/12/16 09:37:13;;;;;;;114.13;25.13;;;;;;;5.53;97.68;102059.69;4995475;28;20046;-76
2020/12/16 09:39:38;;;;;;;77.88;25.05;;;;;;;5.56;98.36;102073.38;4995746;28;20044;-77
2020/12/16 09:42:09;;;;;;;102.53;24.08;;;;;;;5.64;98.07;102075.56;4979157;28;20034;-81
2020/12/16 09:44:35;;;;;;;113.90;22.75;;;;;;;5.49;97.27;102079.00;4995440;28;20088;-77
2020/12/16 09:47:29;;;;;;;83.05;23.08;;;;;;;5.44;97.52;102077.47;5013274;28;20030;-77
2020/12/16 09:50:00;;;;;;;215.48;22.80;;;;;;;5.43;97.66;102083.59;5014538;28;20484;-77
2020/12/16 09:52:31;;;;;;;161.07;25.15;;;;;;;5.33;97.77;102077.19;4998197;28;20037;-78
2020/12/16 09:55:11;;;;;;;131.57;24.33;;;;;;;5.37;98.17;102076.09;4982757;28;20093;-77
2020/12/16 09:57:37;;;;;;;64.60;20.98;;;;;;;5.45;97.75;102068.72;4993902;28;20038;-77
2020/12/16 10:00:04;;;;;;;97.50;24.13;;;;;;;5.49;97.78;102072.00;4965335;28;20049;-78
2020/12/16 10:02:35;;;;;;;103.35;23.45;;;;;;;5.57;97.31;102069.00;4998169;28;20035;-77
2020/12/16 10:05:01;;;;;;;116.60;22.45;;;;;;;5.55;97.21;102071.69;4991423;28;20031;-76
2020/12/16 10:07:31;;;;;;;89.25;19.85;;;;;;;5.55;97.18;102068.25;4981826;28;20033;-76
2020/12/16 10:09:57;;;;;;;89.15;20.70;;;;;;;5.57;96.84;102076.81;5012842;28;20026;-76
2020/12/16 10:12:22;;;;;;;259.25;24.40;;;;;;;5.46;97.37;102067.81;4992051;28;20037;-77
2020/12/16 10:14:48;;;;;;;107.93;21.35;;;;;;;5.51;97.30;102080.59;5012653;28;20095;-77
2020/12/16 10:17:14;;;;;;;93.18;23.13;;;;;;;5.42;97.90;102076.69;5013740;28;20369;-74
2020/12/16 10:19:40;;;;;;;72.65;21.05;;;;;;;5.38;97.27;102067.38;4973981;28;20072;-76
2020/12/16 10:22:06;;;;;;;83.47;22.67;;;;;;;5.42;97.34;102070.66;4983237;28;20153;-75
2020/12/16 10:24:31;;;;;;;54.95;18.63;;;;;;;5.38;97.36;102066.53;4983151;28;20039;-77
2020/12/16 10:27:01;;;;;;;113.50;24.95;;;;;;;5.39;97.59;102057.81;4974191;28;20039;-76
2020/12/16 10:29:28;;;;;;;77.43;24.08;;;;;;;5.50;97.44;102067.66;4994601;28;20057;-76
2020/12/16 10:31:53;;;;;;;81.43;24.17;;;;;;;5.52;97.46;102065.78;4993195;28;20035;-76
2020/12/16 10:34:19;;;;;;;68.93;23.00;;;;;;;5.57;97.64;102061.19;4977277;28;20519;-76
2020/12/16 10:36:50;;;;;;;83.63;22.92;;;;;;;5.55;96.47;102066.47;4962084;28;20384;-77
2020/12/16 10:39:18;;;;;;;81.85;22.10;;;;;;;5.57;97.08;102071.59;5001477;28;20030;-76
2020/12/16 10:41:48;;;;;;;72.47;23.02;;;;;;;5.57;97.23;102069.00;4969304;28;20138;-77
2020/12/16 10:44:14;;;;;;;78.85;22.17;;;;;;;5.59;97.27;102067.16;4993252;28;20045;-77
2020/12/16 10:46:43;;;;;;;76.38;22.17;;;;;;;5.56;97.39;102081.19;4984620;28;20037;-76
2020/12/16 10:49:08;;;;;;;196.15;25.50;;;;;;;5.54;97.23;102087.38;4973613;28;20033;-76
2020/12/16 10:51:34;;;;;;;86.20;22.05;;;;;;;5.49;96.85;102076.38;4982071;28;20049;-76
2020/12/16 10:53:59;;;;;;;73.82;21.52;;;;;;;5.46;96.94;102069.56;4992747;28;20061;-77
2020/12/16 10:56:25;;;;;;;107.63;25.85;;;;;;;5.44;97.02;102077.47;4992393;28;20030;-77
2020/12/16 10:58:50;;;;;;;132.98;24.25;;;;;;;5.44;97.76;102081.81;4974976;28;20073;-76
2020/12/16 11:01:16;;;;;;;75.30;22.67;;;;;;;5.56;97.35;102078.59;4992807;28;20034;-76
2020/12/16 11:03:42;;;;;;;73.10;23.63;;;;;;;5.56;97.53;102065.56;5000172;28;20030;-76
2020/12/16 11:06:07;;;;;;;63.67;22.40;;;;;;;5.52;97.28;102050.19;4995642;28;20519;-77
2020/12/16 11:08:33;;;;;;;86.93;24.00;;;;;;;5.61;97.92;102060.09;4992806;28;20046;-76
2020/12/16 11:10:59;;;;;;;80.93;23.75;;;;;;;5.65;97.34;102054.66;4992518;28;20049;-77
2020/12/16 11:13:24;;;;;;;134.50;25.30;;;;;;;5.72;97.46;102052.56;4977315;28;20034;-77
2020/12/16 11:15:50;;;;;;;132.38;26.92;;;;;;;5.77;97.54;102054.94;4974226;28;20042;-77
2020/12/16 11:18:15;;;;;;;119.40;27.67;;;;;;;5.72;97.20;102062.13;4975235;28;20098;-78
2020/12/16 11:20:40;;;;;;;108.57;27.08;;;;;;;5.72;97.59;102060.38;4980776;28;20042;-77
2020/12/16 11:23:06;;;;;;;107.88;27.13;;;;;;;5.68;97.51;102064.06;4992220;28;20045;-77
2020/12/16 11:25:31;;;;;;;203.32;30.38;;;;;;;5.69;97.92;102062.28;4977508;28;20034;-76
2020/12/16 11:27:58;;;;;;;104.28;27.25;;;;;;;5.78;98.19;102059.19;4963282;28;20072;-76